TimeEDT,TemperatureF,Dew PointF,Humidity,Sea Level PressureIn,VisibilityMPH,Wind Direction,Wind SpeedMPH,Gust SpeedMPH,PrecipitationIn,Events,Conditions,WindDirDegrees,DateUTC
12:00 AM,69.8,69.8,100,30.13,5.0,Calm,Calm,-,N/A,,Clear,0,2012-10-04 04:00:00
12:24 AM,69.8,69.8,100,30.13,7.0,Calm,Calm,-,N/A,,Clear,0,2012-10-04 04:24:00
12:45 AM,71.6,71.6,100,30.13,7.0,Calm,Calm,-,N/A,,Clear,0,2012-10-04 04:45:00
1:06 AM,71.6,71.6,100,30.13,7.0,Calm,Calm,-,N/A,,Clear,0,2012-10-04 05:06:00
1:27 AM,69.8,69.8,100,30.13,7.0,Calm,Calm,-,N/A,,Clear,0,2012-10-04 05:27:00
1:48 AM,69.8,69.8,100,30.13,7.0,Calm,Calm,-,N/A,Rain,Light Rain,0,2012-10-04 05:48:00
2:09 AM,69.8,69.8,100,30.13,7.0,Calm,Calm,-,N/A,,Clear,0,2012-10-04 06:09:00
3:12 AM,69.8,69.8,100,30.12,7.0,Calm,Calm,-,N/A,,Scattered Clouds,0,2012-10-04 07:12:00
3:33 AM,69.8,69.8,100,30.11,7.0,Calm,Calm,-,N/A,,Clear,0,2012-10-04 07:33:00
3:57 AM,69.8,69.8,100,30.12,7.0,Calm,Calm,-,N/A,,Scattered Clouds,0,2012-10-04 07:57:00
4:18 AM,69.8,69.8,100,30.12,7.0,Calm,Calm,-,N/A,,Mostly Cloudy,0,2012-10-04 08:18:00
4:39 AM,69.8,69.8,100,30.13,7.0,Calm,Calm,-,N/A,,Mostly Cloudy,0,2012-10-04 08:39:00
5:00 AM,69.8,69.8,100,30.12,7.0,WNW,3.5,-,N/A,,Scattered Clouds,300,2012-10-04 09:00:00
5:21 AM,69.8,69.8,100,30.12,7.0,Calm,Calm,-,N/A,,Scattered Clouds,0,2012-10-04 09:21:00
5:33 AM,69.8,69.8,100,30.12,7.0,Calm,Calm,-,N/A,,Clear,0,2012-10-04 09:33:00
5:45 AM,71.6,71.6,100,30.12,7.0,Calm,Calm,-,N/A,,Mostly Cloudy,0,2012-10-04 09:45:00
6:45 AM,71.6,71.6,100,30.13,7.0,Calm,Calm,-,N/A,,Overcast,0,2012-10-04 10:45:00
7:45 AM,71.6,71.6,100,30.13,5.0,Calm,Calm,-,N/A,,Light Drizzle,0,2012-10-04 11:45:00
8:20 AM,71.6,71.6,100,30.15,2.5,West,3.5,-,N/A,,Overcast,280,2012-10-04 12:20:00
8:45 AM,71.6,71.6,100,30.15,2.0,Calm,Calm,-,N/A,,Overcast,0,2012-10-04 12:45:00
9:50 AM,71.6,71.6,100,30.13,2.5,Calm,Calm,-,N/A,,Overcast,0,2012-10-04 13:50:00
10:45 AM,73.4,73.4,100,30.15,2.5,Calm,Calm,-,N/A,,Overcast,0,2012-10-04 14:45:00
11:45 AM,75.2,73.4,94,30.13,3.0,Calm,Calm,-,N/A,,Overcast,0,2012-10-04 15:45:00
12:45 PM,77.0,73.4,89,30.12,5.0,WSW,4.6,-,N/A,,Haze,250,2012-10-04 16:45:00
1:45 PM,80.6,68.0,65,30.10,10.0,West,4.6,-,N/A,,Mostly Cloudy,260,2012-10-04 17:45:00
2:54 PM,80.6,68.0,65,30.08,10.0,West,4.6,-,N/A,,Mostly Cloudy,260,2012-10-04 18:54:00
3:54 PM,78.8,68.0,69,30.08,10.0,WNW,13.8,-,N/A,,Mostly Cloudy,290,2012-10-04 19:54:00
5:45 PM,77.0,64.4,65,30.10,10.0,NW,6.9,-,N/A,,Scattered Clouds,310,2012-10-04 21:45:00
6:45 PM,73.4,64.4,73,30.10,10.0,WNW,5.8,-,N/A,,Scattered Clouds,300,2012-10-04 22:45:00
8:45 PM,66.2,64.4,94,30.10,10.0,Calm,Calm,-,N/A,,Scattered Clouds,0,2012-10-05 00:45:00
9:45 PM,66.2,64.4,94,30.12,10.0,Calm,Calm,-,N/A,,Scattered Clouds,0,2012-10-05 01:45:00
10:21 PM,64.4,62.6,94,30.12,10.0,Calm,Calm,-,N/A,,Clear,0,2012-10-05 02:21:00
10:42 PM,64.4,62.6,94,30.12,7.0,Calm,Calm,-,N/A,,Clear,0,2012-10-05 02:42:00
11:03 PM,62.6,62.6,100,30.12,10.0,Calm,Calm,-,N/A,,Clear,0,2012-10-05 03:03:00
11:24 PM,62.6,60.8,94,30.12,10.0,Calm,Calm,-,N/A,,Clear,0,2012-10-05 03:24:00
11:48 PM,62.6,60.8,94,30.12,10.0,West,3.5,-,N/A,,Clear,270,2012-10-05 03:48:00